createdAt,value
2018-04-30T00:00:37.703Z,96878.09
2018-04-30T00:03:05.175Z,96871.20
2018-04-30T00:05:32.645Z,96865.09
2018-04-30T00:08:00.122Z,96856.40
2018-04-30T00:10:27.592Z,96849.74
2018-04-30T00:12:55.056Z,96848.64
2018-04-30T00:15:22.542Z,96844.59
2018-04-30T00:17:49.998Z,96839.00
2018-04-30T00:20:17.571Z,96831.11
2018-04-30T00:22:45.028Z,96824.44
2018-04-30T00:25:12.491Z,96815.37
2018-04-30T00:27:39.971Z,96814.00
2018-04-30T00:30:07.435Z,96809.31
2018-04-30T00:32:34.921Z,96820.50
2018-04-30T00:35:02.388Z,96807.36
2018-04-30T00:37:30.557Z,96805.29
2018-04-30T00:39:58.040Z,96818.07
2018-04-30T00:42:25.506Z,96815.98
2018-04-30T00:44:52.983Z,96823.75
2018-04-30T00:47:20.447Z,96821.50
2018-04-30T00:49:47.914Z,96814.55
2018-04-30T00:52:15.389Z,96810.34
2018-04-30T00:54:54.388Z,96803.72
2018-04-30T00:57:21.859Z,96803.89
2018-04-30T00:59:49.320Z,96803.42
2018-04-30T01:02:16.787Z,96799.27
2018-04-30T01:04:44.255Z,96799.95
2018-04-30T01:07:11.733Z,96805.13
2018-04-30T01:09:39.200Z,96807.15
2018-04-30T01:12:06.664Z,96810.39
2018-04-30T01:14:34.148Z,96799.22
2018-04-30T01:17:01.607Z,96798.27
2018-04-30T01:19:29.088Z,96800.24
2018-04-30T01:21:56.535Z,96796.49
2018-04-30T01:24:24.014Z,96793.17
2018-04-30T01:26:51.468Z,96797.41
2018-04-30T01:29:18.927Z,96789.58
2018-04-30T01:31:46.404Z,96790.72
2018-04-30T01:34:13.866Z,96795.36
2018-04-30T01:36:41.345Z,96798.58
2018-04-30T01:39:08.807Z,96801.16
2018-04-30T01:41:36.280Z,96799.26
2018-04-30T01:44:03.740Z,96797.89
2018-04-30T01:46:31.202Z,96802.95
2018-04-30T01:48:58.679Z,96796.48
2018-04-30T01:51:26.140Z,96792.12
2018-04-30T01:53:53.636Z,96791.93
2018-04-30T01:56:21.100Z,96794.63
2018-04-30T01:58:48.737Z,96795.11
2018-04-30T02:01:16.211Z,96789.53
2018-04-30T02:03:43.669Z,96795.72
2018-04-30T02:06:11.145Z,96791.28
2018-04-30T02:08:38.604Z,96789.66
2018-04-30T02:11:06.087Z,96785.17
2018-04-30T02:13:33.547Z,96789.16
2018-04-30T02:16:01.013Z,96790.03
2018-04-30T02:18:28.503Z,96791.16
2018-04-30T02:20:55.976Z,96774.09
2018-04-30T02:23:23.615Z,96774.86
2018-04-30T02:25:51.079Z,96768.39
2018-04-30T02:28:18.539Z,96771.45
2018-04-30T02:30:46.023Z,96772.58
2018-04-30T02:33:13.487Z,96764.44
2018-04-30T02:35:40.969Z,96763.81
2018-04-30T02:38:08.435Z,96759.30
2018-04-30T02:40:35.900Z,96758.83
2018-04-30T02:43:03.389Z,96762.44
2018-04-30T02:45:30.861Z,96763.14
2018-04-30T02:47:58.361Z,96757.91
2018-04-30T02:50:25.820Z,96751.06
2018-04-30T02:52:53.300Z,96758.69
2018-04-30T02:55:20.763Z,96762.23
2018-04-30T02:57:48.478Z,96753.92
2018-04-30T03:00:15.961Z,96755.50
2018-04-30T03:02:43.437Z,96753.42
2018-04-30T03:05:10.915Z,96754.75
2018-04-30T03:07:38.379Z,96747.92
2018-04-30T03:10:05.893Z,96741.69
2018-04-30T03:12:33.333Z,96744.83
2018-04-30T03:15:00.787Z,96744.84
2018-04-30T03:17:28.268Z,96743.06
2018-04-30T03:19:55.742Z,96742.95
2018-04-30T03:22:23.392Z,96748.04
2018-04-30T03:24:52.040Z,96741.90
2018-04-30T03:27:19.519Z,96742.62
2018-04-30T03:29:47.003Z,96736.94
2018-04-30T03:32:14.473Z,96742.25
2018-04-30T03:34:41.951Z,96730.11
2018-04-30T03:37:09.420Z,96724.39
2018-04-30T03:39:36.873Z,96727.71
2018-04-30T03:42:04.355Z,96733.91
2018-04-30T03:44:31.821Z,96732.66
2018-04-30T03:46:59.304Z,96737.89
2018-04-30T03:49:26.780Z,96737.91
2018-04-30T03:51:55.248Z,96735.19
2018-04-30T03:54:22.724Z,96733.45
2018-04-30T03:56:50.188Z,96733.86
2018-04-30T03:59:17.684Z,96739.53
2018-04-30T04:01:57.003Z,96736.22
2018-04-30T04:04:37.285Z,96733.16
2018-04-30T04:07:04.743Z,96738.45
2018-04-30T04:09:32.202Z,96729.28
2018-04-30T04:11:59.685Z,96734.91
2018-04-30T04:14:27.147Z,96745.77
2018-04-30T04:16:54.649Z,96750.84
2018-04-30T04:19:22.112Z,96745.27
2018-04-30T04:21:49.571Z,96743.46
2018-04-30T04:24:17.049Z,96744.30
2018-04-30T04:26:44.507Z,96752.95
2018-04-30T04:29:11.992Z,96749.57
2018-04-30T04:31:39.468Z,96757.10
2018-04-30T04:34:06.964Z,96768.60
2018-04-30T04:36:34.429Z,96762.46
2018-04-30T04:39:01.897Z,96766.02
2018-04-30T04:41:29.384Z,96765.92
2018-04-30T04:43:56.871Z,96769.14
2018-04-30T04:46:24.361Z,96772.41
2018-04-30T04:48:51.828Z,96765.64
2018-04-30T04:51:19.324Z,96769.46
2018-04-30T04:53:46.780Z,96780.73
2018-04-30T04:56:14.245Z,96778.44
2018-04-30T04:58:41.732Z,96778.31
2018-04-30T05:01:09.187Z,96773.42
2018-04-30T05:03:36.680Z,96774.92
2018-04-30T05:06:04.856Z,96781.95
2018-04-30T05:08:32.345Z,96781.77
2018-04-30T05:10:59.817Z,96785.55
2018-04-30T05:13:27.280Z,96793.57
2018-04-30T05:15:54.750Z,96791.44
2018-04-30T05:18:22.274Z,96791.67
2018-04-30T05:20:49.756Z,96793.41
2018-04-30T05:23:17.228Z,96804.72
2018-04-30T05:25:44.700Z,96800.05
2018-04-30T05:28:12.170Z,96806.23
2018-04-30T05:30:39.635Z,96809.33
2018-04-30T05:33:07.349Z,96812.25
2018-04-30T05:35:34.803Z,96812.33
2018-04-30T05:38:02.279Z,96812.03
2018-04-30T05:40:29.748Z,96811.59
2018-04-30T05:42:57.212Z,96813.56
2018-04-30T05:45:24.699Z,96813.06
2018-04-30T05:47:52.160Z,96811.02
2018-04-30T05:50:19.703Z,96814.03
2018-04-30T05:52:47.119Z,96813.44
2018-04-30T05:55:14.627Z,96814.13
2018-04-30T05:57:42.062Z,96812.86
2018-04-30T06:00:09.521Z,96814.98
2018-04-30T06:02:36.999Z,96823.22
2018-04-30T06:05:04.464Z,96817.85
2018-04-30T06:07:31.940Z,96807.43
2018-04-30T06:09:59.419Z,96812.00
2018-04-30T06:12:26.923Z,96805.80
2018-04-30T06:14:54.383Z,96818.80
2018-04-30T06:17:21.845Z,96817.88
2018-04-30T06:19:49.333Z,96814.59
2018-04-30T06:22:16.799Z,96810.80
2018-04-30T06:24:44.271Z,96801.32
2018-04-30T06:27:11.735Z,96794.64
2018-04-30T06:29:39.187Z,96796.00
2018-04-30T06:32:07.049Z,96793.05
2018-04-30T06:34:34.523Z,96791.31
2018-04-30T06:37:02.000Z,96797.58
2018-04-30T06:39:29.459Z,96802.14
2018-04-30T06:41:56.920Z,96799.14
2018-04-30T06:44:24.401Z,96803.38
2018-04-30T06:46:51.863Z,96801.02
2018-04-30T06:49:19.347Z,96801.47
2018-04-30T06:51:46.811Z,96801.97
2018-04-30T06:54:14.272Z,96815.16
2018-04-30T06:56:41.744Z,96823.57
2018-04-30T06:59:09.204Z,96824.42
2018-04-30T07:01:36.679Z,96838.66
2018-04-30T07:04:04.146Z,96864.02
2018-04-30T07:06:31.628Z,96955.00
2018-04-30T07:08:59.104Z,96925.01
2018-04-30T07:11:26.573Z,96941.98
2018-04-30T07:13:54.062Z,96951.44
2018-04-30T07:16:21.518Z,96964.81
2018-04-30T07:18:48.988Z,96987.05
2018-04-30T07:21:16.762Z,96964.14
2018-04-30T07:23:44.220Z,97014.33
2018-04-30T07:26:11.720Z,97005.01
2018-04-30T07:28:39.171Z,97015.42
2018-04-30T07:31:06.918Z,97000.78
2018-04-30T07:33:34.396Z,97003.89
2018-04-30T07:36:01.906Z,97014.06
2018-04-30T07:38:29.359Z,97030.68
2018-04-30T07:40:56.818Z,97091.73
2018-04-30T07:43:24.379Z,97054.09
2018-04-30T07:45:51.854Z,97079.88
2018-04-30T07:48:19.321Z,97119.27
2018-04-30T07:50:46.800Z,97119.34
2018-04-30T07:53:14.255Z,97133.77
2018-04-30T07:55:41.882Z,97123.14
2018-04-30T07:58:09.343Z,97129.92
2018-04-30T08:00:36.808Z,97150.87
2018-04-30T08:03:04.304Z,97133.63
2018-04-30T08:05:31.776Z,97159.58
2018-04-30T08:07:59.250Z,97168.54
2018-04-30T08:10:26.698Z,97156.67
2018-04-30T08:12:54.156Z,97179.34
2018-04-30T08:15:21.635Z,97208.84
2018-04-30T08:17:49.083Z,97178.66
2018-04-30T08:20:16.580Z,97216.94
2018-04-30T08:22:44.055Z,97248.80
2018-04-30T08:25:11.515Z,97198.08
2018-04-30T08:27:38.992Z,97228.41
2018-04-30T08:30:06.455Z,97213.08
2018-04-30T08:32:33.929Z,97224.81
2018-04-30T08:35:01.396Z,97237.89
2018-04-30T08:37:29.398Z,97235.23
2018-04-30T08:39:56.871Z,97310.41
2018-04-30T08:42:24.328Z,97242.44
2018-04-30T08:44:51.804Z,97257.48
2018-04-30T08:47:19.258Z,97255.08
2018-04-30T08:49:46.732Z,97241.24
2018-04-30T08:52:14.188Z,97259.69
2018-04-30T08:54:41.651Z,97228.40
2018-04-30T08:57:09.122Z,97241.63
2018-04-30T08:59:36.572Z,97231.77
2018-04-30T09:02:04.048Z,97228.52
2018-04-30T09:04:31.527Z,97257.99
2018-04-30T09:06:59.008Z,97223.36
2018-04-30T09:09:26.468Z,97257.98
2018-04-30T09:11:53.928Z,97240.24
2018-04-30T09:14:21.419Z,97255.50
2018-04-30T09:16:48.879Z,97245.82
2018-04-30T09:19:16.368Z,97263.56
2018-04-30T09:21:43.823Z,97282.64
2018-04-30T09:24:11.279Z,97280.80
2018-04-30T09:26:38.756Z,97289.98
2018-04-30T09:29:06.217Z,97299.93
2018-04-30T09:31:33.704Z,97283.16
2018-04-30T09:34:01.174Z,97256.63
2018-04-30T09:36:28.631Z,97259.77
2018-04-30T09:38:56.124Z,97267.91
2018-04-30T09:41:23.584Z,97267.51
2018-04-30T09:43:51.248Z,97265.77
2018-04-30T09:46:18.702Z,97282.33
2018-04-30T09:48:46.160Z,97294.14
2018-04-30T09:51:13.660Z,97274.50
2018-04-30T09:53:41.114Z,97285.31
2018-04-30T09:56:08.600Z,97276.26
2018-04-30T09:58:36.056Z,97277.44
2018-04-30T10:01:03.516Z,97277.03
2018-04-30T10:03:30.985Z,97289.13
2018-04-30T10:05:58.442Z,97266.46
2018-04-30T10:08:25.917Z,97280.65
2018-04-30T10:10:53.381Z,97268.92
2018-04-30T10:13:20.839Z,97268.14
2018-04-30T10:15:48.332Z,97277.16
2018-04-30T10:18:15.789Z,97275.46
2018-04-30T10:20:43.252Z,97285.95
2018-04-30T10:23:10.703Z,97306.79
2018-04-30T10:25:38.172Z,97286.68
2018-04-30T10:28:05.656Z,97287.04
2018-04-30T10:30:33.106Z,97291.22
2018-04-30T10:33:00.566Z,97296.34
2018-04-30T10:35:28.044Z,97298.39
2018-04-30T10:37:55.530Z,97297.47
2018-04-30T10:40:22.976Z,97294.13
2018-04-30T10:42:50.456Z,97281.04
2018-04-30T10:45:17.913Z,97273.02
2018-04-30T10:47:45.399Z,97270.30
2018-04-30T10:50:12.853Z,97268.53
2018-04-30T10:52:40.340Z,97293.34
2018-04-30T10:55:07.795Z,97284.56
2018-04-30T10:57:35.272Z,97274.48
2018-04-30T11:00:02.735Z,97279.26
2018-04-30T11:02:30.213Z,97288.08
2018-04-30T11:04:57.677Z,97283.79
2018-04-30T11:07:25.143Z,97285.91
2018-04-30T11:09:52.612Z,97286.47
2018-04-30T11:12:20.081Z,97274.30
2018-04-30T11:14:47.935Z,97294.84
2018-04-30T11:17:15.397Z,97275.33
2018-04-30T11:19:42.868Z,97281.80
2018-04-30T11:22:10.340Z,97284.31
2018-04-30T11:24:37.812Z,97277.92
2018-04-30T11:27:05.541Z,97278.20
2018-04-30T11:29:33.002Z,97274.81
2018-04-30T11:32:00.459Z,97268.44
2018-04-30T11:34:27.935Z,97286.97
2018-04-30T11:36:55.399Z,97277.52
2018-04-30T11:39:22.889Z,97275.94
2018-04-30T11:41:50.372Z,97279.52
2018-04-30T11:44:17.834Z,97280.02
2018-04-30T11:46:45.327Z,97272.86
2018-04-30T11:49:12.798Z,97283.23
2018-04-30T11:51:40.283Z,97287.25
2018-04-30T11:54:07.751Z,97280.55
2018-04-30T11:56:35.216Z,97279.14
2018-04-30T11:59:02.707Z,97266.69
2018-04-30T12:01:30.164Z,97255.03
2018-04-30T12:03:57.660Z,97262.72
2018-04-30T12:06:25.127Z,97262.55
2018-04-30T12:08:52.587Z,97266.70
2018-04-30T12:11:20.068Z,97265.21
2018-04-30T12:13:47.541Z,97267.80
2018-04-30T12:16:15.025Z,97272.13
2018-04-30T12:18:42.500Z,97263.43
2018-04-30T12:21:09.984Z,97257.27
2018-04-30T12:23:37.463Z,97258.67
2018-04-30T12:26:04.969Z,97264.75
2018-04-30T12:28:32.445Z,97254.43
2018-04-30T12:30:59.924Z,97251.47
2018-04-30T12:33:27.474Z,97243.83
2018-04-30T12:35:54.884Z,97236.20
2018-04-30T12:38:22.381Z,97232.80
2018-04-30T12:40:49.849Z,97233.33
2018-04-30T12:43:17.313Z,97234.81
2018-04-30T12:45:44.796Z,97227.75
2018-04-30T12:48:12.258Z,97235.30
2018-04-30T12:50:39.758Z,97223.36
2018-04-30T12:53:07.211Z,97222.02
2018-04-30T12:55:34.687Z,97226.19
2018-04-30T12:58:03.049Z,97212.42
2018-04-30T13:00:30.515Z,97217.63
2018-04-30T13:02:57.983Z,97205.80
2018-04-30T13:05:25.468Z,97203.64
2018-04-30T13:07:52.960Z,97199.77
2018-04-30T13:10:20.444Z,97203.44
2018-04-30T13:12:47.985Z,97200.12
2018-04-30T13:15:15.550Z,97198.58
2018-04-30T13:17:42.963Z,97196.97
2018-04-30T13:20:10.415Z,97197.97
2018-04-30T13:22:37.894Z,97194.51
2018-04-30T13:25:05.357Z,97191.39
2018-04-30T13:27:32.823Z,97181.22
2018-04-30T13:30:00.301Z,97176.69
2018-04-30T13:32:27.751Z,97176.46
2018-04-30T13:34:55.491Z,97172.45
2018-04-30T13:37:22.997Z,97168.07
2018-04-30T13:39:50.411Z,97176.16
2018-04-30T13:42:17.880Z,97173.56
2018-04-30T13:44:45.346Z,97167.48
2018-04-30T13:47:12.829Z,97160.03
2018-04-30T13:49:40.277Z,97170.03
2018-04-30T13:52:07.732Z,97164.98
2018-04-30T13:54:35.214Z,97162.92
2018-04-30T13:57:02.670Z,97160.50
2018-04-30T13:59:30.152Z,97158.28
2018-04-30T14:01:57.625Z,97158.78
2018-04-30T14:04:25.081Z,97156.15
2018-04-30T14:06:52.544Z,97147.07
2018-04-30T14:09:20.000Z,97144.41
2018-04-30T14:11:47.504Z,97149.80
2018-04-30T14:14:14.975Z,97142.28
2018-04-30T14:16:42.418Z,97141.32
2018-04-30T14:19:09.886Z,97142.98
2018-04-30T14:21:37.340Z,97131.98
2018-04-30T14:24:04.842Z,97131.83
2018-04-30T14:26:32.307Z,97135.39
2018-04-30T14:28:59.757Z,97127.23
2018-04-30T14:31:27.231Z,97134.17
2018-04-30T14:33:54.690Z,97139.31
2018-04-30T14:36:22.807Z,97137.94
2018-04-30T14:38:50.259Z,97131.27
2018-04-30T14:41:18.283Z,97123.47
2018-04-30T14:43:45.762Z,97128.36
2018-04-30T14:46:13.219Z,97121.58
2018-04-30T14:48:40.940Z,97120.73
2018-04-30T14:51:08.393Z,97116.02
2018-04-30T14:53:35.858Z,97122.01
2018-04-30T14:56:03.343Z,97118.70
2018-04-30T14:58:30.814Z,97125.28
2018-04-30T15:00:58.300Z,97110.16
2018-04-30T15:03:25.757Z,97122.58
2018-04-30T15:05:53.216Z,97116.42
2018-04-30T15:08:21.700Z,97121.29
2018-04-30T15:10:49.161Z,97121.87
2018-04-30T15:13:16.619Z,97118.59
2018-04-30T15:15:44.097Z,97115.56
2018-04-30T15:18:11.553Z,97117.22
2018-04-30T15:20:39.020Z,97115.96
2018-04-30T15:23:06.505Z,97110.22
2018-04-30T15:25:33.972Z,97114.44
2018-04-30T15:28:01.559Z,97109.31
2018-04-30T15:30:28.965Z,97107.83
2018-04-30T15:32:56.427Z,97100.10
2018-04-30T15:35:23.897Z,97103.90
2018-04-30T15:37:51.349Z,97095.53
2018-04-30T15:40:18.836Z,97095.44
2018-04-30T15:42:46.300Z,97102.16
2018-04-30T15:45:13.763Z,97094.55
2018-04-30T15:47:41.328Z,97087.41
2018-04-30T15:50:08.719Z,97087.24
2018-04-30T15:52:36.759Z,97084.80
2018-04-30T15:55:04.227Z,97084.16
2018-04-30T15:57:31.683Z,97091.16
2018-04-30T15:59:59.156Z,97091.97
2018-04-30T16:02:27.227Z,97085.67
2018-04-30T16:04:54.705Z,97083.81
2018-04-30T16:07:22.372Z,97084.30
2018-04-30T16:09:49.833Z,97089.13
2018-04-30T16:12:17.304Z,97084.61
2018-04-30T16:14:44.763Z,97083.26
2018-04-30T16:17:12.243Z,97080.38
2018-04-30T16:19:39.700Z,97080.27
2018-04-30T16:22:07.337Z,97083.64
2018-04-30T16:24:34.795Z,97081.87
2018-04-30T16:27:02.255Z,97078.03
2018-04-30T16:29:29.723Z,97076.05
2018-04-30T16:31:57.181Z,97078.98
2018-04-30T16:34:24.676Z,97080.67
2018-04-30T16:36:52.130Z,97081.78
2018-04-30T16:39:19.587Z,97077.97
2018-04-30T16:41:47.060Z,97078.89
2018-04-30T16:44:14.515Z,97084.16
2018-04-30T16:46:41.997Z,97086.56
2018-04-30T16:49:09.463Z,97086.87
2018-04-30T16:51:36.933Z,97083.50
2018-04-30T16:54:04.415Z,97084.17
2018-04-30T16:56:32.223Z,97085.53
2018-04-30T16:58:59.797Z,97081.11
2018-04-30T17:01:27.252Z,97087.83
2018-04-30T17:03:54.813Z,97086.89
2018-04-30T17:06:22.194Z,97091.05
2018-04-30T17:08:49.646Z,97096.53
2018-04-30T17:11:17.121Z,97100.98
2018-04-30T17:13:44.584Z,97101.43
2018-04-30T17:16:12.051Z,97096.33
2018-04-30T17:18:39.535Z,97099.69
2018-04-30T17:21:07.017Z,97102.15
2018-04-30T17:23:34.488Z,97107.03
2018-04-30T17:26:01.945Z,97116.99
2018-04-30T17:28:29.423Z,97116.91
2018-04-30T17:30:56.897Z,97120.25
2018-04-30T17:33:24.352Z,97120.95
2018-04-30T17:35:51.827Z,97125.98
2018-04-30T17:38:19.281Z,97122.20
2018-04-30T17:40:46.743Z,97129.30
2018-04-30T17:43:14.264Z,97132.15
2018-04-30T17:45:42.496Z,97136.16
2018-04-30T17:48:10.034Z,97144.89
2018-04-30T17:50:37.455Z,97145.05
2018-04-30T17:53:04.913Z,97146.84
2018-04-30T17:55:32.397Z,97146.61
2018-04-30T17:57:59.872Z,97141.20
2018-04-30T18:00:27.351Z,97146.97
2018-04-30T18:02:54.811Z,97147.88
2018-04-30T18:05:22.279Z,97151.88
2018-04-30T18:07:49.739Z,97152.34
2018-04-30T18:10:17.192Z,97156.39
2018-04-30T18:12:44.739Z,97158.66
2018-04-30T18:15:12.141Z,97155.89
2018-04-30T18:17:39.620Z,97158.73
2018-04-30T18:20:07.096Z,97159.44
2018-04-30T18:22:34.552Z,97171.78
2018-04-30T18:25:02.041Z,97170.25
2018-04-30T18:27:29.526Z,97173.87
2018-04-30T18:29:57.000Z,97172.29
2018-04-30T18:32:24.458Z,97181.27
2018-04-30T18:34:51.919Z,97174.80
2018-04-30T18:37:19.391Z,97176.61
2018-04-30T18:39:46.888Z,97185.77
2018-04-30T18:42:14.360Z,97187.74
2018-04-30T18:44:41.819Z,97190.99
2018-04-30T18:47:09.281Z,97195.48
2018-04-30T18:49:36.817Z,97200.73
2018-04-30T18:52:04.275Z,97200.69
2018-04-30T18:54:31.747Z,97203.77
2018-04-30T18:56:59.200Z,97207.52
2018-04-30T18:59:26.687Z,97207.98
2018-04-30T19:01:55.012Z,97217.52
2018-04-30T19:04:22.484Z,97212.06
2018-04-30T19:06:50.880Z,97227.88
2018-04-30T19:09:18.429Z,97226.70
2018-04-30T19:11:46.253Z,97231.44
2018-04-30T19:14:13.739Z,97240.74
2018-04-30T19:16:41.232Z,97231.50
2018-04-30T19:19:08.695Z,97248.75
2018-04-30T19:21:36.149Z,97245.48
2018-04-30T19:24:03.701Z,97245.45
2018-04-30T19:26:31.221Z,97247.96
2018-04-30T19:28:58.753Z,97258.92
2018-04-30T19:31:26.232Z,97260.80
2018-04-30T19:33:54.567Z,97261.72
2018-04-30T19:36:22.074Z,97270.26
2018-04-30T19:38:49.540Z,97267.86
2018-04-30T19:41:17.052Z,97273.70
2018-04-30T19:43:44.560Z,97280.48
2018-04-30T19:46:12.108Z,97276.66
2018-04-30T19:48:39.600Z,97280.90
2018-04-30T19:51:07.067Z,97284.38
2018-04-30T19:53:34.592Z,97279.75
2018-04-30T19:56:02.054Z,97276.31
2018-04-30T19:58:29.604Z,97278.67
2018-04-30T20:00:57.265Z,97281.91
2018-04-30T20:03:24.799Z,97285.08
2018-04-30T20:05:52.681Z,97290.80
2018-04-30T20:08:20.164Z,97289.34
2018-04-30T20:10:47.643Z,97286.59
2018-04-30T20:13:15.227Z,97288.42
2018-04-30T20:15:43.008Z,97294.53
2018-04-30T20:18:10.484Z,97297.36
2018-04-30T20:20:37.948Z,97296.37
2018-04-30T20:23:05.524Z,97302.23
2018-04-30T20:25:33.000Z,97304.46
2018-04-30T20:28:00.455Z,97290.63
2018-04-30T20:30:27.940Z,97286.34
2018-04-30T20:32:55.420Z,97290.06
2018-04-30T20:35:22.901Z,97297.66
2018-04-30T20:37:50.365Z,97309.69
2018-04-30T20:40:18.063Z,97307.77
2018-04-30T20:42:45.587Z,97311.23
2018-04-30T20:45:13.074Z,97311.25
2018-04-30T20:47:40.569Z,97322.75
2018-04-30T20:50:08.117Z,97320.06
2018-04-30T20:52:35.687Z,97320.45
2018-04-30T20:55:03.141Z,97320.23
2018-04-30T20:57:30.633Z,97339.39
2018-04-30T20:59:58.119Z,97329.77
2018-04-30T21:02:25.589Z,97345.17
2018-04-30T21:04:54.356Z,97346.88
2018-04-30T21:07:22.095Z,97344.12
2018-04-30T21:09:49.601Z,97352.17
2018-04-30T21:12:17.226Z,97351.93
2018-04-30T21:14:45.074Z,97352.98
2018-04-30T21:17:12.532Z,97353.46
2018-04-30T21:19:40.014Z,97357.94
2018-04-30T21:22:07.507Z,97361.53
2018-04-30T21:24:35.056Z,97364.37
2018-04-30T21:27:02.452Z,97357.02
2018-04-30T21:29:29.903Z,97368.09
2018-04-30T21:31:57.392Z,97364.42
2018-04-30T21:34:24.865Z,97368.00
2018-04-30T21:36:52.324Z,97371.67
2018-04-30T21:39:19.807Z,97370.78
2018-04-30T21:41:47.295Z,97383.66
2018-04-30T21:44:14.782Z,97385.52
2018-04-30T21:46:42.255Z,97376.19
2018-04-30T21:49:09.725Z,97383.18
2018-04-30T21:51:37.187Z,97379.19
2018-04-30T21:54:04.671Z,97394.09
2018-04-30T21:56:32.142Z,97395.66
2018-04-30T21:58:59.617Z,97394.16
2018-04-30T22:01:27.122Z,97403.64
2018-04-30T22:03:54.604Z,97401.18
2018-04-30T22:06:22.082Z,97414.18
2018-04-30T22:08:49.552Z,97417.36
2018-04-30T22:11:17.054Z,97410.13
2018-04-30T22:13:44.512Z,97411.00
2018-04-30T22:16:11.989Z,97416.80
2018-04-30T22:18:39.447Z,97414.65
2018-04-30T22:21:06.898Z,97415.84
2018-04-30T22:23:34.380Z,97420.52
2018-04-30T22:26:01.835Z,97424.13
2018-04-30T22:28:29.316Z,97421.09
2018-04-30T22:30:57.075Z,97420.38
2018-04-30T22:33:24.553Z,97423.90
2018-04-30T22:35:52.012Z,97423.19
2018-04-30T22:38:20.479Z,97424.96
2018-04-30T22:40:47.956Z,97427.05
2018-04-30T22:43:15.424Z,97430.86
2018-04-30T22:45:42.895Z,97431.82
2018-04-30T22:48:10.356Z,97438.88
2018-04-30T22:50:38.116Z,97438.81
2018-04-30T22:53:05.650Z,97442.68
2018-04-30T22:55:33.048Z,97441.20
2018-04-30T22:58:00.523Z,97437.40
2018-04-30T23:00:27.990Z,97444.89
2018-04-30T23:02:55.466Z,97446.31
2018-04-30T23:05:23.986Z,97438.84
2018-04-30T23:07:51.451Z,97449.56
2018-04-30T23:10:18.910Z,97443.81
2018-04-30T23:12:46.381Z,97459.46
2018-04-30T23:15:13.840Z,97455.59
2018-04-30T23:17:41.320Z,97457.55
2018-04-30T23:20:08.985Z,97460.42
2018-04-30T23:22:37.267Z,97460.16
2018-04-30T23:25:04.745Z,97459.97
2018-04-30T23:27:32.196Z,97466.97
2018-04-30T23:29:59.663Z,97474.07
2018-04-30T23:32:27.111Z,97480.41
2018-04-30T23:34:54.583Z,97474.78
2018-04-30T23:37:22.037Z,97476.13
2018-04-30T23:39:49.532Z,97469.13
2018-04-30T23:42:17.281Z,97472.73
2018-04-30T23:44:44.746Z,97471.77
2018-04-30T23:47:12.219Z,97479.13
2018-04-30T23:49:39.680Z,97485.58
2018-04-30T23:52:07.161Z,97482.09
2018-04-30T23:54:34.665Z,97477.22
2018-04-30T23:57:02.118Z,97485.20
2018-04-30T23:59:29.760Z,97489.10
